CST,Max TemperatureF,Mean TemperatureF,Min TemperatureF,Max Dew PointF,MeanDew PointF,Min DewpointF,Max Humidity, Mean Humidity, Min Humidity, Max Sea Level PressureIn, Mean Sea Level PressureIn, Min Sea Level PressureIn, Max VisibilityMiles, Mean VisibilityMiles, Min VisibilityMiles, Max Wind SpeedMPH, Mean Wind SpeedMPH, Max Gust SpeedMPH,PrecipitationIn, CloudCover, Events, WindDirDegrees
2012-12-1,66,60,54,57,54,48,90,80,70,30.01,29.89,29.79,10,9,5,14,9,22,0.00,6,,185
2012-12-2,68,56,44,54,47,42,100,86,40,30.04,29.96,29.87,10,5,0,10,5,,0.00,0,Fog,214
2012-12-3,70,62,52,58,52,35,84,67,50,30.04,29.83,29.74,10,10,10,26,15,39,0.00,5,,208
2012-12-4,61,52,42,33,27,21,62,41,24,30.31,30.23,30.05,10,10,10,10,6,,0.00,0,,328
2012-12-5,57,49,41,32,28,24,62,46,34,30.34,30.23,30.04,10,10,10,12,6,18,0.00,0,,178
2012-12-6,52,46,41,43,38,30,83,70,54,30.01,29.94,29.88,10,10,10,13,8,18,0.00,2,,147
2012-12-7,48,45,42,45,42,39,100,89,80,29.95,29.90,29.85,8,6,3,12,7,,0.02,8,Rain,15
2012-12-8,43,38,33,40,35,33,100,91,70,30.02,29.96,29.88,10,3,0,10,6,,0.04,7,Fog-Rain,55
2012-12-9,43,32,21,39,31,10,100,83,54,30.09,29.92,29.82,10,5,0,23,8,28,0.00,5,Fog,329
2012-12-10,28,24,19,16,11,10,68,61,53,30.13,30.07,30.04,10,10,10,20,12,23,0.00,4,,274
2012-12-11,44,32,21,19,14,8,63,49,34,30.17,30.10,30.04,10,10,10,12,8,16,0.00,0,,226
2012-12-12,48,38,28,16,14,10,58,39,21,30.25,30.18,30.14,10,10,10,17,11,26,0.00,0,,192
2012-12-13,55,45,35,24,19,14,46,38,26,30.17,30.14,30.09,10,10,10,18,13,28,0.00,0,,198
2012-12-14,52,44,37,40,30,23,89,55,41,30.13,29.95,29.72,10,9,2,17,10,29,0.31,5,Rain,175
2012-12-15,53,48,42,45,42,37,89,79,69,29.74,29.63,29.52,10,10,8,20,14,30,0.05,6,Rain,230
2012-12-16,42,38,33,38,35,32,100,94,85,29.80,29.74,29.69,10,3,0,8,4,,0.00,5,Fog,343
2012-12-17,46,40,33,34,32,28,93,80,59,29.80,29.76,29.71,10,7,4,13,6,,0.00,4,,254
2012-12-18,57,47,37,33,31,30,79,61,37,29.90,29.75,29.62,10,10,9,16,12,23,0.00,1,,257
2012-12-19,42,38,35,39,34,30,97,83,70,29.92,29.66,29.40,10,7,2,20,11,24,0.05,6,Rain-Thunderstorm,67
2012-12-20,39,32,24,37,24,12,97,82,58,30.26,29.78,29.38,10,5,0,34,20,45,0.23,5,Fog-Rain-Snow-Thunderstorm,304
2012-12-21,37,28,18,18,14,12,78,57,41,30.39,30.32,30.27,10,10,10,10,6,,0.00,0,,209
2012-12-22,51,40,28,27,21,13,62,50,36,30.24,30.06,29.95,10,10,10,13,7,17,0.00,0,,190
2012-12-23,36,30,24,24,22,19,88,75,61,30.02,29.96,29.93,10,9,5,12,5,,0.00,0,,359
2012-12-24,25,22,19,19,15,12,88,78,62,30.19,30.08,29.96,10,7,2,14,10,21,0.00,3,,339
2012-12-25,21,18,14,16,12,7,86,77,62,30.34,30.25,30.14,10,9,5,22,14,28,0.00,6,,16
2012-12-26,28,19,10,14,9,5,81,70,51,30.28,30.24,30.20,10,10,10,17,11,,0.00,4,,352
2012-12-27,36,27,18,23,18,13,81,71,55,30.20,30.07,29.97,10,10,10,13,5,21,0.00,3,,108
2012-12-28,30,26,21,25,21,14,80,74,68,30.09,30.00,29.95,10,8,6,20,6,26,0.00,8,,298
2012-12-29,33,26,19,16,15,13,78,66,48,30.33,30.26,30.10,10,9,6,15,10,23,0.00,3,Snow,270
2012-12-30,45,35,25,20,18,16,72,52,36,30.36,30.26,30.14,10,10,10,18,10,28,0.00,0,,203
2012-12-31,53,38,23,32,27,18,96,79,34,30.20,30.11,30.04,10,3,0,16,8,,0.12,8,Fog-Snow,19